PWSweather.com
Personal Weather Stations
Station Observations
KVAGLENALL
West Henrico, Glen Allen, VA 23060-6503

West HenricoGlen Allen, VA 23060-6503

Lat: 37.6554, Lon: -77.5693

Elevation: 273

Station Type: Davis Vantage Pro II

www.glenallenweather.com

High Low Average
Temperature 82.1°F27.8°C 56.2°F13.4°C 69.6°F20.9°C
Dew Point 63.3°F17.4°C 53.9°F12.2°C 59.5°F15.3°C
Winds 11.0 mph 17.7 kmh Calm Calm 3.0 mph ESE4.8 kmh ESE
Wind Gusts 14.1 mph22.7 kmh -- 6.0 mph9.7 kmh
Humidity 92% 47% 72%
Pressure 30.34 in1027.4 mb 30.26 in1024.7 mb -
Precipitation 0.00 in0.0 mm - -
Hour Temp Dew Point Humidity Winds Wind Gusts Pressure Precip Precip Rate Daily Precip Total
12:00 AM 62.9°F17.2°C 59.9°F15.5°C 90% 3.0 mph NE4.8 kmh NE 4.0 mph6.4 kmh 30.28 in1025.4 mb 0.00 in0.0 mm 0.00 in0.0 mm 0.00 in0.0 mm
12:15 AM 62.5°F16.9°C 59.9°F15.5°C 91% 3.0 mph NNE4.8 kmh NNE 5.1 mph8.2 kmh 30.29 in1025.7 mb 0.00 in0.0 mm 0.00 in0.0 mm 0.00 in0.0 mm
12:30 AM 62.1°F16.7°C 59.2°F15.1°C 90% 2.0 mph NNE3.2 kmh NNE 4.0 mph6.4 kmh 30.29 in1025.7 mb 0.00 in0.0 mm 0.00 in0.0 mm 0.00 in0.0 mm
12:45 AM 61.8°F16.6°C 58.5°F14.7°C 89% 2.0 mph NNE3.2 kmh NNE 3.0 mph4.8 kmh 30.29 in1025.7 mb 0.00 in0.0 mm 0.00 in0.0 mm 0.00 in0.0 mm
01:00 AM 61.3°F16.3°C 58.0°F14.4°C 89% 2.0 mph NE3.2 kmh NE 4.0 mph6.4 kmh 30.28 in1025.4 mb 0.00 in0.0 mm 0.00 in0.0 mm 0.00 in0.0 mm
01:15 AM 60.7°F15.9°C 57.5°F14.2°C 89% 4.0 mph NNE6.4 kmh NNE 4.0 mph6.4 kmh 30.28 in1025.4 mb 0.00 in0.0 mm 0.00 in0.0 mm 0.00 in0.0 mm
01:30 AM 60.1°F15.6°C 56.9°F13.8°C 89% 3.0 mph NNE4.8 kmh NNE 3.0 mph4.8 kmh 30.29 in1025.7 mb 0.00 in0.0 mm 0.00 in0.0 mm 0.00 in0.0 mm
01:45 AM 59.8°F15.4°C 56.6°F13.7°C 89% 5.0 mph N8.0 kmh N 5.1 mph8.2 kmh 30.28 in1025.4 mb 0.00 in0.0 mm 0.00 in0.0 mm 0.00 in0.0 mm
02:00 AM 59.5°F15.3°C 56.6°F13.7°C 90% 4.0 mph NNE6.4 kmh NNE 5.1 mph8.2 kmh 30.28 in1025.4 mb 0.00 in0.0 mm 0.00 in0.0 mm 0.00 in0.0 mm
02:15 AM 59.1°F15.1°C 55.6°F13.1°C 88% 3.0 mph NNE4.8 kmh NNE 5.1 mph8.2 kmh 30.28 in1025.4 mb 0.00 in0.0 mm 0.00 in0.0 mm 0.00 in0.0 mm
02:30 AM 58.9°F14.9°C 55.4°F13.0°C 88% 2.0 mph N3.2 kmh N 3.0 mph4.8 kmh 30.28 in1025.4 mb 0.00 in0.0 mm 0.00 in0.0 mm 0.00 in0.0 mm
02:45 AM 58.3°F14.6°C 55.1°F12.8°C 89% 3.0 mph N4.8 kmh N 5.1 mph8.2 kmh 30.28 in1025.4 mb 0.00 in0.0 mm 0.00 in0.0 mm 0.00 in0.0 mm
03:00 AM 58.1°F14.5°C 54.9°F12.7°C 89% 4.0 mph N6.4 kmh N 5.1 mph8.2 kmh 30.28 in1025.4 mb 0.00 in0.0 mm 0.00 in0.0 mm 0.00 in0.0 mm
03:15 AM 57.8°F14.3°C 54.9°F12.7°C 90% 3.0 mph N4.8 kmh N 4.0 mph6.4 kmh 30.28 in1025.4 mb 0.00 in0.0 mm 0.00 in0.0 mm 0.00 in0.0 mm
03:30 AM 57.4°F14.1°C 54.8°F12.7°C 91% 2.0 mph N3.2 kmh N 5.1 mph8.2 kmh 30.29 in1025.7 mb 0.00 in0.0 mm 0.00 in0.0 mm 0.00 in0.0 mm
03:45 AM 57.3°F14.1°C 54.7°F12.6°C 91% 3.0 mph NE4.8 kmh NE 5.1 mph8.2 kmh 30.29 in1025.7 mb 0.00 in0.0 mm 0.00 in0.0 mm 0.00 in0.0 mm
04:00 AM 57.2°F14.0°C 54.6°F12.6°C 91% 4.0 mph N6.4 kmh N 6.1 mph9.8 kmh 30.28 in1025.4 mb 0.00 in0.0 mm 0.00 in0.0 mm 0.00 in0.0 mm
04:15 AM 57.0°F13.9°C 54.4°F12.4°C 91% 2.0 mph N3.2 kmh N 5.1 mph8.2 kmh 30.29 in1025.7 mb 0.00 in0.0 mm 0.00 in0.0 mm 0.00 in0.0 mm
04:30 AM 56.8°F13.8°C 54.2°F12.3°C 91% 5.0 mph N8.0 kmh N 5.1 mph8.2 kmh 30.29 in1025.7 mb 0.00 in0.0 mm 0.00 in0.0 mm 0.00 in0.0 mm
04:45 AM 56.4°F13.6°C 54.1°F12.3°C 92% 1.0 mph N1.6 kmh N 4.0 mph6.4 kmh 30.29 in1025.7 mb 0.00 in0.0 mm 0.00 in0.0 mm 0.00 in0.0 mm
05:00 AM 56.2°F13.4°C 53.9°F12.2°C 92% 2.0 mph N3.2 kmh N 5.1 mph8.2 kmh 30.30 in1026.1 mb 0.00 in0.0 mm 0.00 in0.0 mm 0.00 in0.0 mm
05:15 AM 56.3°F13.5°C 54.0°F12.2°C 92% 2.0 mph N3.2 kmh N 4.0 mph6.4 kmh 30.30 in1026.1 mb 0.00 in0.0 mm 0.00 in0.0 mm 0.00 in0.0 mm
05:30 AM 56.7°F13.7°C 54.4°F12.4°C 92% 3.0 mph N4.8 kmh N 5.1 mph8.2 kmh 30.31 in1026.4 mb 0.00 in0.0 mm 0.00 in0.0 mm 0.00 in0.0 mm
05:45 AM 57.2°F14.0°C 54.6°F12.6°C 91% 2.0 mph N3.2 kmh N 4.0 mph6.4 kmh 30.31 in1026.4 mb 0.00 in0.0 mm 0.00 in0.0 mm 0.00 in0.0 mm
06:00 AM 58.0°F14.4°C 55.1°F12.8°C 90% 5.0 mph N8.0 kmh N 7.1 mph11.4 kmh 30.31 in1026.4 mb 0.00 in0.0 mm 0.00 in0.0 mm 0.00 in0.0 mm
06:15 AM 59.1°F15.1°C 55.9°F13.3°C 89% 6.0 mph N9.7 kmh N 6.1 mph9.8 kmh 30.32 in1026.8 mb 0.00 in0.0 mm 0.00 in0.0 mm 0.00 in0.0 mm
06:30 AM 60.4°F15.8°C 56.5°F13.6°C 87% 6.0 mph NNW9.7 kmh NNW 7.1 mph11.4 kmh 30.32 in1026.8 mb 0.00 in0.0 mm 0.00 in0.0 mm 0.00 in0.0 mm
06:45 AM 61.5°F16.4°C 57.3°F14.1°C 86% 4.0 mph NE6.4 kmh NE 7.1 mph11.4 kmh 30.32 in1026.8 mb 0.00 in0.0 mm 0.00 in0.0 mm 0.00 in0.0 mm
07:00 AM 62.6°F17.0°C 58.1°F14.5°C 85% 4.0 mph NNE6.4 kmh NNE 9.1 mph14.6 kmh 30.32 in1026.8 mb 0.00 in0.0 mm 0.00 in0.0 mm 0.00 in0.0 mm
07:15 AM 63.8°F17.7°C 58.6°F14.8°C 83% 4.0 mph NNE6.4 kmh NNE 9.1 mph14.6 kmh 30.33 in1027.1 mb 0.00 in0.0 mm 0.00 in0.0 mm 0.00 in0.0 mm
07:30 AM 64.9°F18.3°C 59.0°F15.0°C 81% 8.0 mph N12.9 kmh N 9.1 mph14.6 kmh 30.33 in1027.1 mb 0.00 in0.0 mm 0.00 in0.0 mm 0.00 in0.0 mm
07:45 AM 66.7°F19.3°C 59.7°F15.4°C 78% 3.0 mph NNE4.8 kmh NNE 7.1 mph11.4 kmh 30.33 in1027.1 mb 0.00 in0.0 mm 0.00 in0.0 mm 0.00 in0.0 mm
08:00 AM 68.3°F20.2°C 60.5°F15.8°C 76% 8.0 mph NNW12.9 kmh NNW 11.1 mph17.9 kmh 30.33 in1027.1 mb 0.00 in0.0 mm 0.00 in0.0 mm 0.00 in0.0 mm
08:15 AM 69.0°F20.6°C 59.7°F15.4°C 72% 6.0 mph NNW9.7 kmh NNW 13.1 mph21.1 kmh 30.34 in1027.4 mb 0.00 in0.0 mm 0.00 in0.0 mm 0.00 in0.0 mm
08:30 AM 70.0°F21.1°C 60.1°F15.6°C 71% 5.0 mph NNE8.0 kmh NNE 11.1 mph17.9 kmh 30.34 in1027.4 mb 0.00 in0.0 mm 0.00 in0.0 mm 0.00 in0.0 mm
08:45 AM 71.4°F21.9°C 61.5°F16.4°C 71% 3.0 mph NNW4.8 kmh NNW 8.1 mph13.0 kmh 30.34 in1027.4 mb 0.00 in0.0 mm 0.00 in0.0 mm 0.00 in0.0 mm
09:00 AM 71.9°F22.2°C 62.0°F16.7°C 71% 8.0 mph E12.9 kmh E 9.1 mph14.6 kmh 30.34 in1027.4 mb 0.00 in0.0 mm 0.00 in0.0 mm 0.00 in0.0 mm
09:15 AM 72.6°F22.6°C 61.4°F16.3°C 68% 4.0 mph E6.4 kmh E 9.1 mph14.6 kmh 30.34 in1027.4 mb 0.00 in0.0 mm 0.00 in0.0 mm 0.00 in0.0 mm
09:30 AM 73.3°F22.9°C 62.1°F16.7°C 68% 6.0 mph NW9.7 kmh NW 10.1 mph16.3 kmh 30.34 in1027.4 mb 0.00 in0.0 mm 0.00 in0.0 mm 0.00 in0.0 mm
09:45 AM 73.6°F23.1°C 62.0°F16.7°C 67% 11.0 mph E17.7 kmh E 11.1 mph17.9 kmh 30.34 in1027.4 mb 0.00 in0.0 mm 0.00 in0.0 mm 0.00 in0.0 mm
10:00 AM 74.4°F23.6°C 62.3°F16.8°C 66% 4.0 mph ENE6.4 kmh ENE 9.1 mph14.6 kmh 30.34 in1027.4 mb 0.00 in0.0 mm 0.00 in0.0 mm 0.00 in0.0 mm
10:15 AM 75.2°F24.0°C 62.2°F16.8°C 64% 10.0 mph N16.1 kmh N 14.1 mph22.7 kmh 30.34 in1027.4 mb 0.00 in0.0 mm 0.00 in0.0 mm 0.00 in0.0 mm
10:30 AM 75.7°F24.3°C 61.8°F16.6°C 62% 9.0 mph NNE14.5 kmh NNE 9.1 mph14.6 kmh 30.34 in1027.4 mb 0.00 in0.0 mm 0.00 in0.0 mm 0.00 in0.0 mm
10:45 AM 76.1°F24.5°C 61.2°F16.2°C 60% 5.0 mph E8.0 kmh E 6.1 mph9.8 kmh 30.34 in1027.4 mb 0.00 in0.0 mm 0.00 in0.0 mm 0.00 in0.0 mm
11:00 AM 77.0°F25.0°C 61.6°F16.4°C 59% 3.0 mph NE4.8 kmh NE 5.1 mph8.2 kmh 30.33 in1027.1 mb 0.00 in0.0 mm 0.00 in0.0 mm 0.00 in0.0 mm
11:15 AM 77.3°F25.2°C 61.4°F16.3°C 58% 4.0 mph N6.4 kmh N 11.1 mph17.9 kmh 30.33 in1027.1 mb 0.00 in0.0 mm 0.00 in0.0 mm 0.00 in0.0 mm
11:30 AM 78.3°F25.7°C 61.8°F16.6°C 57% 3.0 mph ESE4.8 kmh ESE 6.1 mph9.8 kmh 30.32 in1026.8 mb 0.00 in0.0 mm 0.00 in0.0 mm 0.00 in0.0 mm
11:45 AM 78.2°F25.7°C 60.2°F15.7°C 54% 1.0 mph ENE1.6 kmh ENE 8.1 mph13.0 kmh 30.31 in1026.4 mb 0.00 in0.0 mm 0.00 in0.0 mm 0.00 in0.0 mm
12:00 PM 78.6°F25.9°C 61.6°F16.4°C 56% 8.0 mph NNE12.9 kmh NNE 9.1 mph14.6 kmh 30.31 in1026.4 mb 0.00 in0.0 mm 0.00 in0.0 mm 0.00 in0.0 mm
12:15 PM 79.0°F26.1°C 62.5°F16.9°C 57% 2.0 mph NNE3.2 kmh NNE 8.1 mph13.0 kmh 30.32 in1026.8 mb 0.00 in0.0 mm 0.00 in0.0 mm 0.00 in0.0 mm
12:30 PM 79.3°F26.3°C 61.2°F16.2°C 54% 3.0 mph NNE4.8 kmh NNE 10.1 mph16.3 kmh 30.31 in1026.4 mb 0.00 in0.0 mm 0.00 in0.0 mm 0.00 in0.0 mm
12:45 PM 79.6°F26.4°C 61.0°F16.1°C 53% 6.0 mph E9.7 kmh E 9.1 mph14.6 kmh 30.31 in1026.4 mb 0.00 in0.0 mm 0.00 in0.0 mm 0.00 in0.0 mm
01:00 PM 80.1°F26.7°C 62.0°F16.7°C 54% 8.0 mph NE12.9 kmh NE 11.1 mph17.9 kmh 30.30 in1026.1 mb 0.00 in0.0 mm 0.00 in0.0 mm 0.00 in0.0 mm
01:15 PM 80.0°F26.7°C 58.6°F14.8°C 48% 11.0 mph NNE17.7 kmh NNE 11.1 mph17.9 kmh 30.30 in1026.1 mb 0.00 in0.0 mm 0.00 in0.0 mm 0.00 in0.0 mm
01:30 PM 80.3°F26.8°C 60.0°F15.6°C 50% 5.0 mph E8.0 kmh E 8.1 mph13.0 kmh 30.30 in1026.1 mb 0.00 in0.0 mm 0.00 in0.0 mm 0.00 in0.0 mm
01:45 PM 80.9°F27.2°C 61.1°F16.2°C 51% 2.0 mph NNW3.2 kmh NNW 8.1 mph13.0 kmh 30.30 in1026.1 mb 0.00 in0.0 mm 0.00 in0.0 mm 0.00 in0.0 mm
02:00 PM 81.0°F27.2°C 63.3°F17.4°C 55% 4.0 mph NE6.4 kmh NE 5.1 mph8.2 kmh 30.29 in1025.7 mb 0.00 in0.0 mm 0.00 in0.0 mm 0.00 in0.0 mm
02:15 PM 81.5°F27.5°C 59.4°F15.2°C 47% 4.0 mph NNE6.4 kmh NNE 11.1 mph17.9 kmh 30.29 in1025.7 mb 0.00 in0.0 mm 0.00 in0.0 mm 0.00 in0.0 mm
02:30 PM 81.5°F27.5°C 59.9°F15.5°C 48% 5.0 mph NNE8.0 kmh NNE 10.1 mph16.3 kmh 30.29 in1025.7 mb 0.00 in0.0 mm 0.00 in0.0 mm 0.00 in0.0 mm
02:45 PM 81.4°F27.4°C 60.4°F15.8°C 49% 3.0 mph ENE4.8 kmh ENE 11.1 mph17.9 kmh 30.28 in1025.4 mb 0.00 in0.0 mm 0.00 in0.0 mm 0.00 in0.0 mm
03:00 PM 82.0°F27.8°C 60.4°F15.8°C 48% 4.0 mph E6.4 kmh E 5.1 mph8.2 kmh 30.27 in1025.1 mb 0.00 in0.0 mm 0.00 in0.0 mm 0.00 in0.0 mm
03:15 PM 81.5°F27.5°C 62.2°F16.8°C 52% 2.0 mph E3.2 kmh E 8.1 mph13.0 kmh 30.27 in1025.1 mb 0.00 in0.0 mm 0.00 in0.0 mm 0.00 in0.0 mm
03:30 PM 81.7°F27.6°C 61.3°F16.3°C 50% 4.0 mph ENE6.4 kmh ENE 5.1 mph8.2 kmh 30.27 in1025.1 mb 0.00 in0.0 mm 0.00 in0.0 mm 0.00 in0.0 mm
03:45 PM 82.1°F27.8°C 61.1°F16.2°C 49% 6.0 mph ENE9.7 kmh ENE 7.1 mph11.4 kmh 30.28 in1025.4 mb 0.00 in0.0 mm 0.00 in0.0 mm 0.00 in0.0 mm
04:00 PM 81.9°F27.7°C 60.9°F16.1°C 49% 3.0 mph NNE4.8 kmh NNE 5.1 mph8.2 kmh 30.27 in1025.1 mb 0.00 in0.0 mm 0.00 in0.0 mm 0.00 in0.0 mm
04:15 PM 82.0°F27.8°C 59.8°F15.4°C 47% 8.0 mph NE12.9 kmh NE 10.1 mph16.3 kmh 30.27 in1025.1 mb 0.00 in0.0 mm 0.00 in0.0 mm 0.00 in0.0 mm
04:30 PM 81.6°F27.6°C 61.2°F16.2°C 50% 1.0 mph ENE1.6 kmh ENE 5.1 mph8.2 kmh 30.27 in1025.1 mb 0.00 in0.0 mm 0.00 in0.0 mm 0.00 in0.0 mm
04:45 PM 81.7°F27.6°C 61.3°F16.3°C 50% 2.0 mph NE3.2 kmh NE 5.1 mph8.2 kmh 30.27 in1025.1 mb 0.00 in0.0 mm 0.00 in0.0 mm 0.00 in0.0 mm
05:00 PM 81.1°F27.3°C 60.7°F15.9°C 50% 1.0 mph NNE1.6 kmh NNE 8.1 mph13.0 kmh 30.26 in1024.7 mb 0.00 in0.0 mm 0.00 in0.0 mm 0.00 in0.0 mm
05:15 PM 80.8°F27.1°C 61.6°F16.4°C 52% 4.0 mph N6.4 kmh N 5.1 mph8.2 kmh 30.26 in1024.7 mb 0.00 in0.0 mm 0.00 in0.0 mm 0.00 in0.0 mm
05:30 PM 79.2°F26.2°C 61.7°F16.5°C 55% 4.0 mph NE6.4 kmh NE 7.1 mph11.4 kmh 30.26 in1024.7 mb 0.00 in0.0 mm 0.00 in0.0 mm 0.00 in0.0 mm
05:45 PM 78.4°F25.8°C 61.4°F16.3°C 56% 2.0 mph ESE3.2 kmh ESE 4.0 mph6.4 kmh 30.26 in1024.7 mb 0.00 in0.0 mm 0.00 in0.0 mm 0.00 in0.0 mm
06:00 PM 78.0°F25.6°C 61.0°F16.1°C 56% 5.0 mph NE8.0 kmh NE 5.1 mph8.2 kmh 30.26 in1024.7 mb 0.00 in0.0 mm 0.00 in0.0 mm 0.00 in0.0 mm
06:15 PM 77.5°F25.3°C 61.1°F16.2°C 57% 5.0 mph NNW8.0 kmh NNW 7.1 mph11.4 kmh 30.26 in1024.7 mb 0.00 in0.0 mm 0.00 in0.0 mm 0.00 in0.0 mm
06:30 PM 77.0°F25.0°C 62.1°F16.7°C 60% 1.0 mph NNE1.6 kmh NNE 4.0 mph6.4 kmh 30.26 in1024.7 mb 0.00 in0.0 mm 0.00 in0.0 mm 0.00 in0.0 mm
06:45 PM 76.6°F24.8°C 61.7°F16.5°C 60% 2.0 mph NNE3.2 kmh NNE 4.0 mph6.4 kmh 30.27 in1025.1 mb 0.00 in0.0 mm 0.00 in0.0 mm 0.00 in0.0 mm
07:00 PM 75.8°F24.3°C 61.8°F16.6°C 62% 2.0 mph N3.2 kmh N 5.1 mph8.2 kmh 30.26 in1024.7 mb 0.00 in0.0 mm 0.00 in0.0 mm 0.00 in0.0 mm
07:15 PM 74.9°F23.8°C 61.9°F16.6°C 64% 1.0 mph ENE1.6 kmh ENE 3.0 mph4.8 kmh 30.26 in1024.7 mb 0.00 in0.0 mm 0.00 in0.0 mm 0.00 in0.0 mm
07:30 PM 74.2°F23.4°C 61.7°F16.5°C 65% 3.0 mph NE4.8 kmh NE 3.0 mph4.8 kmh 30.27 in1025.1 mb 0.00 in0.0 mm 0.00 in0.0 mm 0.00 in0.0 mm
07:45 PM 73.4°F23.0°C 61.3°F16.3°C 66% 2.0 mph NNE3.2 kmh NNE 3.0 mph4.8 kmh 30.27 in1025.1 mb 0.00 in0.0 mm 0.00 in0.0 mm 0.00 in0.0 mm
08:00 PM 72.1°F22.3°C 62.9°F17.2°C 73% 2.0 mph N3.2 kmh N 3.0 mph4.8 kmh 30.28 in1025.4 mb 0.00 in0.0 mm 0.00 in0.0 mm 0.00 in0.0 mm
08:15 PM 69.8°F21.0°C 62.6°F17.0°C 78% 2.0 mph N3.2 kmh N 3.0 mph4.8 kmh 30.28 in1025.4 mb 0.00 in0.0 mm 0.00 in0.0 mm 0.00 in0.0 mm
08:30 PM 68.6°F20.3°C 61.9°F16.6°C 79% 1.0 mph ESE1.6 kmh ESE 2.0 mph3.2 kmh 30.29 in1025.7 mb 0.00 in0.0 mm 0.00 in0.0 mm 0.00 in0.0 mm
08:45 PM 68.1°F20.1°C 62.4°F16.9°C 82% Calm Calm -- 30.29 in1025.7 mb 0.00 in0.0 mm 0.00 in0.0 mm 0.00 in0.0 mm
09:00 PM 67.3°F19.6°C 61.3°F16.3°C 81% Calm Calm -- 30.30 in1026.1 mb 0.00 in0.0 mm 0.00 in0.0 mm 0.00 in0.0 mm
09:15 PM 66.6°F19.2°C 61.3°F16.3°C 83% Calm Calm -- 30.30 in1026.1 mb 0.00 in0.0 mm 0.00 in0.0 mm 0.00 in0.0 mm
09:30 PM 66.0°F18.9°C 61.1°F16.2°C 84% Calm Calm -- 30.30 in1026.1 mb 0.00 in0.0 mm 0.00 in0.0 mm 0.00 in0.0 mm
09:45 PM 65.5°F18.6°C 61.2°F16.2°C 86% Calm Calm -- 30.29 in1025.7 mb 0.00 in0.0 mm 0.00 in0.0 mm 0.00 in0.0 mm
10:00 PM 65.0°F18.3°C 60.7°F15.9°C 86% Calm Calm 3.0 mph4.8 kmh 30.29 in1025.7 mb 0.00 in0.0 mm 0.00 in0.0 mm 0.00 in0.0 mm
10:15 PM 64.6°F18.1°C 60.7°F15.9°C 87% Calm Calm -- 30.29 in1025.7 mb 0.00 in0.0 mm 0.00 in0.0 mm 0.00 in0.0 mm
10:30 PM 64.0°F17.8°C 60.1°F15.6°C 87% Calm Calm -- 30.29 in1025.7 mb 0.00 in0.0 mm 0.00 in0.0 mm 0.00 in0.0 mm
10:45 PM 63.9°F17.7°C 60.0°F15.6°C 87% Calm Calm 1.0 mph1.6 kmh 30.29 in1025.7 mb 0.00 in0.0 mm 0.00 in0.0 mm 0.00 in0.0 mm
11:00 PM 63.2°F17.3°C 59.6°F15.3°C 88% Calm Calm -- 30.30 in1026.1 mb 0.00 in0.0 mm 0.00 in0.0 mm 0.00 in0.0 mm
11:15 PM 62.7°F17.1°C 59.4°F15.2°C 89% Calm Calm -- 30.29 in1025.7 mb 0.00 in0.0 mm 0.00 in0.0 mm 0.00 in0.0 mm
11:30 PM 62.1°F16.7°C 59.2°F15.1°C 90% Calm Calm -- 30.28 in1025.4 mb 0.00 in0.0 mm 0.00 in0.0 mm 0.00 in0.0 mm
11:45 PM 61.4°F16.3°C 58.5°F14.7°C 90% Calm Calm -- 30.27 in1025.1 mb 0.00 in0.0 mm 0.00 in0.0 mm 0.00 in0.0 mm